Algona, Iowa
Current Conditions -  °F | °C
As of 4:35 PM on Monday 20 Oct 2014 (Local Time) from KAXA Reporting Station
Clear Clear  
Wind Chill: 68°   Ceiling: Unl
Heat Index: 68°   Visibility: 10mi
Dew Point: 39°   Wind: 13mph
Humidity: 35%   Direction: 330°NNW
Pressure: 30.02"   Gusts: 18mph
Location:  43.07°N, 94.23°W
Report Text: KAXA 202135Z AUTO 33011G16KT 10SM CLR 20/04 A3002 RMK AO2
Loading
Personal Weather Stations






























Interactive Weather Map
Tropical Storm Tracking
New forecast layout! Learn more

10-Day Weather Forecast

Advertisements
Track Severe Weather on mobile